RKSM METAR and TAF | Updated Today

RKSM METAR

Seoul Air Base (K-16)

Observation time: 29 min. ago

RKSM 062000Z 34004KT 9999 FEW020 BKN060 13/10 A3008

Need help? Read our tutorial on how to read METARs or read the parsed version below.

Seoul Air Base (K-16) (RKSM) METAR

  • Weather conditions on Thu, 06 Oct 2022 20:00:00 +0000 (29 min. ago):
  • Present conditions: Dry
  • Clouds: A few at 610 meters; broken sky at 1829 meters
  • Visibility: Greater than 10 km
  • Wind: 340 degrees at 4 knots
  • Temperature: 13 celsius
  • Dew point: 10 celsius
  • Pressure: 30.08 millibars
  • Remarks: None


Useful to know...

RKSM TAF

Seoul Air Base (K-16)

TAF RKSM 061700Z 0618/0724 36006KT 9999 SCT030 BKN150 TN11/0621Z TX19/0706Z
Observation time: 3:29 hr. ago
Need help? Read our tutorial on how to read TAFs or read the parsed version below.

Parsed version of TAF for Seoul Air Base (K-16) (RKSM)

  • From 06 October at 18:00 UTC, to day 07 of the month at 24:00 UTC
  • Clouds: Scattered at 914 meters; broken sky at 4572 meters
  • Visibility: Greater than 10 km
  • Wind: 360 degrees at 6